Scottdale, Georgia
Current Conditions -  °F | °C
As of 1:53 AM on Saturday 25 Oct 2014 (Local Time) from KPDK Reporting Station
Clear Clear  
Wind Chill: 48°   Ceiling: Unl
Heat Index: 48°   Visibility: 10mi
Dew Point: 41°   Wind: 3mph
Humidity: 77%   Direction: 340°NNW
Pressure: 30.03"   Gusts: NA
Location:  33.79°N, 84.26°W
Report Text: KPDK 250553Z AUTO 34003KT 10SM CLR 09/05 A3003 RMK AO2 SLP166 T00890050 10167 20083 58003 $
Loading
Personal Weather Stations






























Interactive Weather Map
Tropical Storm Tracking
New forecast layout! Learn more

10-Day Weather Forecast

Advertisements
Track Severe Weather on mobile